URRE weather

Remontnoye Airport
Remontnoye, Rostov Oblast, Russia

Public forecast

Using degrees Celsius for public forecast. Weather courtesy of forecast.io.

METAR (pilot weather report)

Closest report is Elista Airport, 30.1 nm (55.8 km) ESE. Retrieved 2019/08/21 14:30 UTC (26 minutes ago):

URWI 211430Z 10007MPS CAVOK 36/02 Q1013 R09/010065 NOSIG

TAF (pilot weather forecast)

Forecast is more than 12 hours old.

Closest forecast is Elista Airport, 30.1 nm (55.8 km) ESE. Retrieved 2019/07/29 03:12 UTC (23 days ago):

TAF TAF URWI 290200Z 2903/2915 28006G12MPS 9999 SCT020CB TEMPO 2906/2915 30008G14MPS